createdAt,value
2023-08-12T00:01:04.898Z,98127.83
2023-08-12T00:03:35.016Z,98125.83
2023-08-12T00:06:06.629Z,98128.11
2023-08-12T00:08:34.927Z,98123.90
2023-08-12T00:11:02.817Z,98120.34
2023-08-12T00:13:30.952Z,98118.65
2023-08-12T00:15:59.348Z,98117.45
2023-08-12T00:18:27.313Z,98120.07
2023-08-12T00:20:56.415Z,98121.55
2023-08-12T00:23:24.573Z,98117.48
2023-08-12T00:25:52.726Z,98116.67
2023-08-12T00:28:20.922Z,98117.15
2023-08-12T00:30:49.541Z,98117.38
2023-08-12T00:33:17.664Z,98119.30
2023-08-12T00:35:46.179Z,98121.11
2023-08-12T00:38:14.235Z,98118.85
2023-08-12T00:40:42.388Z,98115.86
2023-08-12T00:43:10.870Z,98115.15
2023-08-12T00:45:39.652Z,98113.50
2023-08-12T00:48:09.404Z,98111.06
2023-08-12T00:50:39.168Z,98115.86
2023-08-12T00:53:07.650Z,98116.61
2023-08-12T00:55:35.756Z,98116.45
2023-08-12T00:58:04.718Z,98119.85
2023-08-12T01:00:33.483Z,98121.16
2023-08-12T01:03:04.516Z,98122.84
2023-08-12T01:05:32.934Z,98125.74
2023-08-12T01:08:00.750Z,98127.30
2023-08-12T01:10:34.376Z,98128.13
2023-08-12T01:13:14.479Z,98125.92
2023-08-12T01:15:44.960Z,98124.31
2023-08-12T01:18:14.062Z,98125.34
2023-08-12T01:20:42.136Z,98123.75
2023-08-12T01:23:14.806Z,98122.39
2023-08-12T01:25:43.713Z,98118.27
2023-08-12T01:28:12.198Z,98118.65
2023-08-12T01:30:47.411Z,98114.17
2023-08-12T01:33:28.724Z,98112.80
2023-08-12T01:36:02.066Z,98113.45
2023-08-12T01:38:32.440Z,98116.50
2023-08-12T01:41:02.327Z,98113.64
2023-08-12T01:43:30.921Z,98113.46
2023-08-12T01:45:59.198Z,98116.35
2023-08-12T01:48:27.193Z,98113.08
2023-08-12T01:50:55.428Z,98110.32
2023-08-12T01:53:24.297Z,98107.81
2023-08-12T01:55:53.440Z,98107.32
2023-08-12T01:58:21.503Z,98111.08
2023-08-12T02:00:49.657Z,98111.30
2023-08-12T02:03:17.842Z,98109.60
2023-08-12T02:05:46.511Z,98105.84
2023-08-12T02:08:14.913Z,98105.45
2023-08-12T02:10:43.170Z,98104.30
2023-08-12T02:13:11.573Z,98107.13
2023-08-12T02:15:39.612Z,98109.83
2023-08-12T02:18:12.916Z,98111.20
2023-08-12T02:20:42.123Z,98109.46
2023-08-12T02:23:10.120Z,98107.07
2023-08-12T02:25:37.932Z,98106.00
2023-08-12T02:28:05.909Z,98110.29
2023-08-12T02:30:34.608Z,98112.36
2023-08-12T02:33:03.121Z,98111.89
2023-08-12T02:35:30.991Z,98116.40
2023-08-12T02:37:58.768Z,98113.79
2023-08-12T02:40:26.884Z,98113.13
2023-08-12T02:42:54.848Z,98113.89
2023-08-12T02:45:22.717Z,98117.59
2023-08-12T02:47:50.619Z,98113.02
2023-08-12T02:50:18.863Z,98113.23
2023-08-12T02:52:46.796Z,98113.60
2023-08-12T02:55:14.994Z,98110.55
2023-08-12T02:57:43.276Z,98113.97
2023-08-12T03:00:12.267Z,98118.44
2023-08-12T03:02:43.866Z,98120.50
2023-08-12T03:05:11.936Z,98116.72
2023-08-12T03:07:39.860Z,98122.46
2023-08-12T03:10:08.247Z,98121.50
2023-08-12T03:12:36.300Z,98126.44
2023-08-12T03:15:05.089Z,98130.74
2023-08-12T03:17:34.008Z,98133.40
2023-08-12T03:20:02.509Z,98136.75
2023-08-12T03:22:31.282Z,98143.30
2023-08-12T03:24:59.630Z,98144.84
2023-08-12T03:27:27.550Z,98147.14
2023-08-12T03:29:55.870Z,98143.92
2023-08-12T03:32:24.141Z,98146.67
2023-08-12T03:34:52.323Z,98150.83
2023-08-12T03:37:20.596Z,98153.96
2023-08-12T03:39:48.863Z,98157.92
2023-08-12T03:42:18.273Z,98161.52
2023-08-12T03:44:46.337Z,98160.65
2023-08-12T03:47:14.463Z,98161.70
2023-08-12T03:49:43.011Z,98164.95
2023-08-12T03:52:11.411Z,98165.64
2023-08-12T03:54:39.437Z,98167.10
2023-08-12T03:57:07.449Z,98171.09
2023-08-12T03:59:35.787Z,98172.27
2023-08-12T04:02:05.384Z,98170.23
2023-08-12T04:04:33.570Z,98169.73
2023-08-12T04:07:01.534Z,98174.02
2023-08-12T04:09:29.537Z,98177.64
2023-08-12T04:11:57.682Z,98178.02
2023-08-12T04:14:26.730Z,98178.27
2023-08-12T04:16:54.795Z,98173.80
2023-08-12T04:19:22.927Z,98174.52
2023-08-12T04:21:51.296Z,98174.48
2023-08-12T04:24:19.261Z,98173.19
2023-08-12T04:26:48.724Z,98170.27
2023-08-12T04:29:17.040Z,98174.54
2023-08-12T04:31:45.104Z,98175.23
2023-08-12T04:34:13.192Z,98177.36
2023-08-12T04:36:44.236Z,98174.17
2023-08-12T04:39:12.722Z,98175.59
2023-08-12T04:41:41.294Z,98169.96
2023-08-12T04:44:09.745Z,98170.80
2023-08-12T04:46:37.867Z,98173.11
2023-08-12T04:49:06.733Z,98177.61
2023-08-12T04:51:35.112Z,98175.58
2023-08-12T04:54:04.098Z,98170.73
2023-08-12T04:56:32.789Z,98168.63
2023-08-12T04:59:02.284Z,98167.52
2023-08-12T05:01:30.322Z,98170.92
2023-08-12T05:03:58.326Z,98175.36
2023-08-12T05:06:26.603Z,98172.27
2023-08-12T05:08:55.592Z,98169.97
2023-08-12T05:11:23.635Z,98172.04
2023-08-12T05:13:51.573Z,98172.74
2023-08-12T05:16:19.793Z,98177.14
2023-08-12T05:18:48.390Z,98174.89
2023-08-12T05:21:16.347Z,98176.02
2023-08-12T05:23:44.527Z,98177.23
2023-08-12T05:26:12.807Z,98176.29
2023-08-12T05:28:40.623Z,98172.98
2023-08-12T05:31:09.355Z,98176.54
2023-08-12T05:33:37.177Z,98172.10
2023-08-12T05:36:05.488Z,98171.70
2023-08-12T05:38:33.566Z,98173.98
2023-08-12T05:41:01.535Z,98170.52
2023-08-12T05:43:29.691Z,98167.90
2023-08-12T05:45:57.887Z,98165.29
2023-08-12T05:48:25.944Z,98159.82
2023-08-12T05:50:54.228Z,98161.49
2023-08-12T05:53:23.110Z,98160.83
2023-08-12T05:55:51.395Z,98158.13
2023-08-12T05:58:19.686Z,98161.23
2023-08-12T06:00:47.636Z,98161.93
2023-08-12T06:03:15.785Z,98160.34
2023-08-12T06:05:45.109Z,98155.44
2023-08-12T06:08:13.519Z,98157.52
2023-08-12T06:10:41.558Z,98153.60
2023-08-12T06:13:09.930Z,98151.65
2023-08-12T06:15:38.153Z,98149.73
2023-08-12T06:18:07.609Z,98144.48
2023-08-12T06:20:35.675Z,98144.53
2023-08-12T06:23:03.767Z,98143.20
2023-08-12T06:25:31.935Z,98140.69
2023-08-12T06:28:00.415Z,98143.70
2023-08-12T06:30:28.505Z,98141.86
2023-08-12T06:32:56.557Z,98138.17
2023-08-12T06:35:24.729Z,98135.84
2023-08-12T06:37:52.783Z,98133.56
2023-08-12T06:40:21.168Z,98134.54
2023-08-12T06:42:49.083Z,98132.05
2023-08-12T06:45:17.223Z,98125.34
2023-08-12T06:47:45.455Z,98124.77
2023-08-12T06:50:13.486Z,98126.91
2023-08-12T06:52:42.042Z,98126.51
2023-08-12T06:55:09.842Z,98126.96
2023-08-12T06:57:37.637Z,98127.23
2023-08-12T07:00:06.382Z,98127.90
2023-08-12T07:02:34.367Z,98125.34
2023-08-12T07:05:02.822Z,98120.96
2023-08-12T07:07:30.965Z,98124.87
2023-08-12T07:09:58.960Z,98124.09
2023-08-12T07:12:26.875Z,98122.94
2023-08-12T07:14:54.858Z,98121.20
2023-08-12T07:17:22.722Z,98119.15
2023-08-12T07:19:50.841Z,98125.20
2023-08-12T07:22:20.869Z,98124.38
2023-08-12T07:24:48.903Z,98124.02
2023-08-12T07:27:16.933Z,98123.50
2023-08-12T07:29:44.942Z,98127.52
2023-08-12T07:32:13.806Z,98127.27
2023-08-12T07:34:42.108Z,98126.38
2023-08-12T07:37:10.068Z,98118.99
2023-08-12T07:39:37.950Z,98115.87
2023-08-12T07:42:06.417Z,98117.83
2023-08-12T07:44:34.491Z,98115.51
2023-08-12T07:47:02.262Z,98114.07
2023-08-12T07:49:31.244Z,98108.45
2023-08-12T07:51:59.315Z,98105.44
2023-08-12T07:54:27.278Z,98110.55
2023-08-12T07:56:55.344Z,98110.77
2023-08-12T07:59:23.237Z,98109.88
2023-08-12T08:01:51.312Z,98108.34
2023-08-12T08:04:19.524Z,98108.55
2023-08-12T08:06:49.220Z,98106.45
2023-08-12T08:09:19.415Z,98107.77
2023-08-12T08:11:47.177Z,98102.98
2023-08-12T08:14:15.233Z,98102.83
2023-08-12T08:16:43.663Z,98098.46
2023-08-12T08:19:13.317Z,98098.69
2023-08-12T08:21:41.689Z,98100.66
2023-08-12T08:24:12.623Z,98098.44
2023-08-12T08:26:41.881Z,98097.80
2023-08-12T08:29:10.051Z,98092.61
2023-08-12T08:31:38.492Z,98088.73
2023-08-12T08:34:07.332Z,98086.70
2023-08-12T08:36:35.436Z,98081.98
2023-08-12T08:39:04.217Z,98080.45
2023-08-12T08:41:33.643Z,98086.61
2023-08-12T08:44:04.665Z,98087.65
2023-08-12T08:46:32.965Z,98080.89
2023-08-12T08:49:04.209Z,98080.26
2023-08-12T08:51:35.734Z,98082.09
2023-08-12T08:54:05.489Z,98085.77
2023-08-12T08:56:38.598Z,98087.41
2023-08-12T08:59:12.540Z,98083.58
2023-08-12T09:01:41.149Z,98080.86
2023-08-12T09:04:10.024Z,98086.89
2023-08-12T09:06:39.991Z,98084.36
2023-08-12T09:09:11.799Z,98080.33
2023-08-12T09:11:40.621Z,98079.38
2023-08-12T09:14:09.921Z,98076.10
2023-08-12T09:16:38.191Z,98069.50
2023-08-12T09:19:06.594Z,98066.50
2023-08-12T09:21:34.811Z,98065.54
2023-08-12T09:24:05.879Z,98071.09
2023-08-12T09:26:33.821Z,98067.61
2023-08-12T09:29:01.729Z,98065.63
2023-08-12T09:31:30.986Z,98067.30
2023-08-12T09:34:06.124Z,98066.54
2023-08-12T09:36:34.401Z,98063.88
2023-08-12T09:39:07.177Z,98060.59
2023-08-12T09:41:36.809Z,98059.66
2023-08-12T09:44:05.466Z,98055.25
2023-08-12T09:46:36.492Z,98055.60
2023-08-12T09:49:05.705Z,98052.67
2023-08-12T09:51:38.079Z,98052.96
2023-08-12T09:54:06.053Z,98052.77
2023-08-12T09:56:37.720Z,98050.42
2023-08-12T09:59:08.754Z,98052.75
2023-08-12T10:01:38.313Z,98054.39
2023-08-12T10:04:11.533Z,98051.80
2023-08-12T10:06:39.380Z,98043.13
2023-08-12T10:09:09.632Z,98044.98
2023-08-12T10:11:38.709Z,98044.41
2023-08-12T10:14:06.818Z,98047.27
2023-08-12T10:16:34.753Z,98047.60
2023-08-12T10:19:03.656Z,98044.21
2023-08-12T10:21:31.611Z,98043.87
2023-08-12T10:24:00.292Z,98045.16
2023-08-12T10:26:28.645Z,98043.79
2023-08-12T10:28:57.457Z,98045.29
2023-08-12T10:31:27.519Z,98043.67
2023-08-12T10:33:56.081Z,98037.37
2023-08-12T10:36:24.269Z,98037.10
2023-08-12T10:38:52.401Z,98031.60
2023-08-12T10:41:22.305Z,98029.64
2023-08-12T10:43:57.345Z,98029.02
2023-08-12T10:46:25.697Z,98026.43
2023-08-12T10:48:57.692Z,98020.67
2023-08-12T10:52:01.131Z,98022.13
2023-08-12T10:54:32.237Z,98028.98
2023-08-12T10:57:03.839Z,98027.56
2023-08-12T10:59:47.243Z,98029.14
2023-08-12T11:02:33.884Z,98029.52
2023-08-12T11:05:01.784Z,98025.83
2023-08-12T11:07:35.248Z,98026.88
2023-08-12T11:10:23.752Z,98025.39
2023-08-12T11:12:58.094Z,98025.63
2023-08-12T11:15:40.663Z,98022.80
2023-08-12T11:18:09.403Z,98022.65
2023-08-12T11:20:38.542Z,98011.77
2023-08-12T11:23:06.918Z,98008.14
2023-08-12T11:25:35.917Z,98010.17
2023-08-12T11:28:05.463Z,98010.30
2023-08-12T11:30:33.810Z,98006.79
2023-08-12T11:33:03.080Z,98007.67
2023-08-12T11:35:31.381Z,98010.81
2023-08-12T11:37:59.961Z,98011.55
2023-08-12T11:40:29.081Z,98008.34
2023-08-12T11:42:57.322Z,98008.89
2023-08-12T11:45:26.643Z,98005.42
2023-08-12T11:47:55.602Z,98002.16
2023-08-12T11:50:25.652Z,98005.27
2023-08-12T11:52:54.838Z,98000.52
2023-08-12T11:55:23.349Z,97996.38
2023-08-12T11:57:51.810Z,97997.92
2023-08-12T12:00:20.521Z,97999.98
2023-08-12T12:02:54.589Z,97994.95
2023-08-12T12:05:25.040Z,97991.27
2023-08-12T12:07:54.305Z,97995.70
2023-08-12T12:10:23.191Z,97992.36
2023-08-12T12:12:51.387Z,97992.48
2023-08-12T12:15:19.247Z,97990.17
2023-08-12T12:17:48.663Z,97986.98
2023-08-12T12:20:16.830Z,97987.67
2023-08-12T12:22:45.201Z,97985.05
2023-08-12T12:25:14.005Z,97981.64
2023-08-12T12:27:43.393Z,97979.66
2023-08-12T12:30:12.308Z,97979.58
2023-08-12T12:32:41.461Z,97976.63
2023-08-12T12:35:09.704Z,97980.81
2023-08-12T12:37:37.810Z,97985.42
2023-08-12T12:40:06.719Z,97983.77
2023-08-12T12:42:34.740Z,97982.89
2023-08-12T12:45:02.970Z,97983.43
2023-08-12T12:47:31.652Z,97977.61
2023-08-12T12:49:59.555Z,97979.96
2023-08-12T12:52:27.267Z,97977.73
2023-08-12T12:54:55.378Z,97976.44
2023-08-12T12:57:23.198Z,97973.02
2023-08-12T12:59:51.484Z,97970.64
2023-08-12T13:02:19.691Z,97970.85
2023-08-12T13:04:47.819Z,97972.44
2023-08-12T13:07:16.376Z,97973.44
2023-08-12T13:09:44.171Z,97973.67
2023-08-12T13:12:12.484Z,97972.48
2023-08-12T13:14:40.626Z,97971.38
2023-08-12T13:17:09.104Z,97973.51
2023-08-12T13:19:37.376Z,97973.88
2023-08-12T13:22:05.856Z,97972.83
2023-08-12T13:24:34.248Z,97975.02
2023-08-12T13:27:03.130Z,97968.94
2023-08-12T13:29:33.197Z,97969.98
2023-08-12T13:32:02.326Z,97968.08
2023-08-12T13:34:30.415Z,97964.84
2023-08-12T13:36:58.369Z,97964.75
2023-08-12T13:39:26.589Z,97965.04
2023-08-12T13:41:56.249Z,97964.44
2023-08-12T13:44:24.133Z,97968.12
2023-08-12T13:46:52.098Z,97963.98
2023-08-12T13:49:20.259Z,97960.98
2023-08-12T13:51:48.253Z,97953.06
2023-08-12T13:54:16.235Z,97958.73
2023-08-12T13:56:44.579Z,97956.70
2023-08-12T13:59:12.430Z,97950.94
2023-08-12T14:01:42.247Z,97948.17
2023-08-12T14:04:12.072Z,97945.83
2023-08-12T14:06:41.984Z,97950.22
2023-08-12T14:09:09.904Z,97951.23
2023-08-12T14:11:38.325Z,97947.23
2023-08-12T14:14:06.612Z,97946.09
2023-08-12T14:16:35.102Z,97944.98
2023-08-12T14:19:03.872Z,97945.63
2023-08-12T14:21:32.413Z,97946.92
2023-08-12T14:24:00.365Z,97949.45
2023-08-12T14:26:28.175Z,97949.35
2023-08-12T14:28:56.357Z,97946.09
2023-08-12T14:31:24.419Z,97942.02
2023-08-12T14:33:52.912Z,97939.80
2023-08-12T14:36:20.782Z,97935.08
2023-08-12T14:38:48.760Z,97935.67
2023-08-12T14:41:16.923Z,97938.30
2023-08-12T14:43:45.092Z,97933.43
2023-08-12T14:46:13.962Z,97934.30
2023-08-12T14:48:42.110Z,97932.36
2023-08-12T14:51:10.268Z,97935.30
2023-08-12T14:53:38.406Z,97932.62
2023-08-12T14:56:06.651Z,97927.75
2023-08-12T14:58:34.628Z,97927.64
2023-08-12T15:01:04.358Z,97925.58
2023-08-12T15:03:32.608Z,97922.62
2023-08-12T15:06:04.999Z,97923.56
2023-08-12T15:08:33.885Z,97923.02
2023-08-12T15:11:02.001Z,97919.73
2023-08-12T15:13:30.171Z,97920.09
2023-08-12T15:15:58.146Z,97918.63
2023-08-12T15:18:26.263Z,97919.05
2023-08-12T15:20:54.233Z,97917.33
2023-08-12T15:23:22.307Z,97916.11
2023-08-12T15:25:50.486Z,97916.18
2023-08-12T15:28:18.351Z,97912.88
2023-08-12T15:30:49.060Z,97906.98
2023-08-12T15:33:18.032Z,97909.95
2023-08-12T15:35:46.058Z,97911.08
2023-08-12T15:38:13.967Z,97910.42
2023-08-12T15:40:42.194Z,97909.51
2023-08-12T15:43:10.355Z,97909.65
2023-08-12T15:45:43.064Z,97909.64
2023-08-12T15:48:11.008Z,97912.02
2023-08-12T15:50:40.459Z,97914.39
2023-08-12T15:53:10.247Z,97915.34
2023-08-12T15:55:38.121Z,97917.90
2023-08-12T15:58:06.157Z,97923.68
2023-08-12T16:00:34.624Z,97919.99
2023-08-12T16:03:02.949Z,97922.32
2023-08-12T16:05:31.085Z,97917.49
2023-08-12T16:07:59.657Z,97918.77
2023-08-12T16:10:27.739Z,97921.48
2023-08-12T16:12:56.017Z,97920.77
2023-08-12T16:15:23.998Z,97922.79
2023-08-12T16:17:51.903Z,97921.48
2023-08-12T16:20:20.443Z,97923.19
2023-08-12T16:22:48.500Z,97920.81
2023-08-12T16:25:16.792Z,97920.30
2023-08-12T16:27:44.939Z,97919.66
2023-08-12T16:30:13.543Z,97922.08
2023-08-12T16:32:41.665Z,97922.87
2023-08-12T16:35:09.600Z,97925.09
2023-08-12T16:37:37.553Z,97922.93
2023-08-12T16:40:05.934Z,97922.34
2023-08-12T16:42:33.780Z,97922.49
2023-08-12T16:45:01.873Z,97926.60
2023-08-12T16:47:32.398Z,97925.80
2023-08-12T16:50:00.720Z,97927.08
2023-08-12T16:52:28.903Z,97929.61
2023-08-12T16:54:57.235Z,97933.55
2023-08-12T16:57:26.011Z,97932.80
2023-08-12T16:59:54.361Z,97933.52
2023-08-12T17:02:22.746Z,97936.34
2023-08-12T17:04:50.817Z,97940.30
2023-08-12T17:07:18.896Z,97938.50
2023-08-12T17:09:47.763Z,97935.42
2023-08-12T17:12:16.528Z,97937.44
2023-08-12T17:14:44.843Z,97936.77
2023-08-12T17:17:12.811Z,97937.08
2023-08-12T17:19:40.984Z,97935.08
2023-08-12T17:22:09.067Z,97935.36
2023-08-12T17:24:37.023Z,97933.49
2023-08-12T17:27:04.844Z,97936.98
2023-08-12T17:29:33.054Z,97938.62
2023-08-12T17:32:01.032Z,97941.70
2023-08-12T17:34:28.988Z,97941.77
2023-08-12T17:36:57.067Z,97944.77
2023-08-12T17:39:25.132Z,97947.48
2023-08-12T17:41:53.429Z,97949.02
2023-08-12T17:44:21.482Z,97952.34
2023-08-12T17:46:49.601Z,97952.16
2023-08-12T17:49:17.795Z,97955.73
2023-08-12T17:51:45.805Z,97961.02
2023-08-12T17:54:15.232Z,97964.08
2023-08-12T17:56:43.268Z,97969.64
2023-08-12T17:59:11.235Z,97973.15
2023-08-12T18:01:39.407Z,97976.50
2023-08-12T18:04:07.267Z,97982.02
2023-08-12T18:06:35.268Z,97984.80
2023-08-12T18:09:07.340Z,97985.90
2023-08-12T18:11:36.977Z,97984.71
2023-08-12T18:14:05.196Z,97993.76
2023-08-12T18:16:34.638Z,97997.97
2023-08-12T18:19:03.074Z,97998.39
2023-08-12T18:21:30.876Z,98000.93
2023-08-12T18:23:58.809Z,98002.68
2023-08-12T18:26:26.924Z,98004.64
2023-08-12T18:28:54.710Z,98009.40
2023-08-12T18:31:22.710Z,98012.34
2023-08-12T18:33:50.787Z,98012.15
2023-08-12T18:36:18.955Z,98011.66
2023-08-12T18:38:47.233Z,98008.97
2023-08-12T18:41:15.126Z,98007.09
2023-08-12T18:43:43.069Z,98005.98
2023-08-12T18:46:11.044Z,98003.59
2023-08-12T18:48:39.553Z,98006.15
2023-08-12T18:51:07.993Z,98009.41
2023-08-12T18:53:36.359Z,98009.95
2023-08-12T18:56:04.363Z,98010.71
2023-08-12T18:58:32.753Z,98013.20
2023-08-12T19:01:00.841Z,98012.97
2023-08-12T19:03:29.511Z,98009.12
2023-08-12T19:06:01.647Z,98010.77
2023-08-12T19:08:29.929Z,98012.11
2023-08-12T19:10:58.797Z,98014.40
2023-08-12T19:13:26.815Z,98018.20
2023-08-12T19:15:55.935Z,98023.34
2023-08-12T19:18:24.651Z,98025.64
2023-08-12T19:20:52.461Z,98029.34
2023-08-12T19:23:20.894Z,98030.40
2023-08-12T19:25:48.661Z,98034.48
2023-08-12T19:28:16.744Z,98035.45
2023-08-12T19:30:48.536Z,98033.48
2023-08-12T19:33:17.178Z,98029.75
2023-08-12T19:35:45.463Z,98032.79
2023-08-12T19:38:15.993Z,98034.15
2023-08-12T19:40:44.263Z,98036.96
2023-08-12T19:43:12.121Z,98041.55
2023-08-12T19:45:40.190Z,98038.64
2023-08-12T19:48:08.248Z,98040.05
2023-08-12T19:50:37.692Z,98041.73
2023-08-12T19:53:06.131Z,98042.66
2023-08-12T19:55:34.020Z,98039.85
2023-08-12T19:58:02.690Z,98042.16
2023-08-12T20:00:30.965Z,98040.96
2023-08-12T20:02:58.981Z,98044.50
2023-08-12T20:05:29.612Z,98046.72
2023-08-12T20:07:57.524Z,98046.59
2023-08-12T20:10:26.741Z,98052.34
2023-08-12T20:12:54.828Z,98057.70
2023-08-12T20:15:23.095Z,98057.19
2023-08-12T20:17:51.288Z,98059.14
2023-08-12T20:20:19.657Z,98059.41
2023-08-12T20:23:03.470Z,98063.51
2023-08-12T20:25:35.094Z,98064.02
2023-08-12T20:28:03.703Z,98065.69
2023-08-12T20:30:35.782Z,98066.88
2023-08-12T20:33:04.702Z,98072.21
2023-08-12T20:35:33.167Z,98071.52
2023-08-12T20:38:02.031Z,98074.73
2023-08-12T20:40:30.326Z,98072.13
2023-08-12T20:42:59.121Z,98074.86
2023-08-12T20:45:27.373Z,98076.11
2023-08-12T20:47:55.253Z,98079.54
2023-08-12T20:50:23.295Z,98082.87
2023-08-12T20:52:51.272Z,98078.06
2023-08-12T20:55:19.475Z,98079.44
2023-08-12T20:57:49.450Z,98082.37
2023-08-12T21:00:17.631Z,98080.67
2023-08-12T21:02:47.500Z,98082.55
2023-08-12T21:05:16.597Z,98084.67
2023-08-12T21:07:44.796Z,98088.79
2023-08-12T21:10:13.493Z,98092.27
2023-08-12T21:12:41.811Z,98091.33
2023-08-12T21:15:09.924Z,98087.23
2023-08-12T21:17:38.048Z,98087.08
2023-08-12T21:20:06.365Z,98086.91
2023-08-12T21:22:34.486Z,98087.83
2023-08-12T21:25:02.305Z,98090.25
2023-08-12T21:27:30.053Z,98090.63
2023-08-12T21:29:58.287Z,98093.85
2023-08-12T21:32:26.496Z,98098.83
2023-08-12T21:34:54.513Z,98102.69
2023-08-12T21:37:22.326Z,98105.09
2023-08-12T21:39:50.353Z,98106.41
2023-08-12T21:42:18.308Z,98107.25
2023-08-12T21:44:46.156Z,98108.71
2023-08-12T21:47:14.448Z,98109.86
2023-08-12T21:49:42.371Z,98103.54
2023-08-12T21:52:10.182Z,98103.43
2023-08-12T21:54:38.255Z,98105.16
2023-08-12T21:57:06.326Z,98105.83
2023-08-12T21:59:34.710Z,98102.95
2023-08-12T22:02:05.661Z,98099.63
2023-08-12T22:04:33.717Z,98095.91
2023-08-12T22:07:01.793Z,98095.42
2023-08-12T22:09:30.304Z,98093.81
2023-08-12T22:11:59.202Z,98094.70
2023-08-12T22:14:27.141Z,98093.49
2023-08-12T22:16:55.193Z,98095.86
2023-08-12T22:19:24.388Z,98092.16
2023-08-12T22:21:55.666Z,98089.53
2023-08-12T22:24:26.496Z,98091.08
2023-08-12T22:26:54.654Z,98091.02
2023-08-12T22:29:22.816Z,98092.33
2023-08-12T22:31:50.824Z,98091.79
2023-08-12T22:34:19.460Z,98092.06
2023-08-12T22:36:47.671Z,98092.61
2023-08-12T22:39:15.568Z,98092.98
2023-08-12T22:41:43.472Z,98096.77
2023-08-12T22:44:11.650Z,98097.59
2023-08-12T22:46:39.632Z,98090.56
2023-08-12T22:49:07.890Z,98090.70
2023-08-12T22:51:37.193Z,98092.76
2023-08-12T22:54:05.841Z,98093.24
2023-08-12T22:56:34.566Z,98094.20
2023-08-12T22:59:02.759Z,98092.85
2023-08-12T23:01:30.831Z,98093.92
2023-08-12T23:03:58.664Z,98092.80
2023-08-12T23:06:26.752Z,98092.88
2023-08-12T23:08:54.706Z,98097.05
2023-08-12T23:11:22.674Z,98096.36
2023-08-12T23:13:50.661Z,98096.91
2023-08-12T23:16:18.653Z,98098.00
2023-08-12T23:18:46.784Z,98102.90
2023-08-12T23:21:14.784Z,98098.54
2023-08-12T23:23:42.825Z,98094.59
2023-08-12T23:26:10.710Z,98096.39
2023-08-12T23:28:40.731Z,98092.27
2023-08-12T23:31:11.405Z,98094.05
2023-08-12T23:33:39.341Z,98096.33
2023-08-12T23:36:07.197Z,98095.89
2023-08-12T23:38:35.347Z,98095.02
2023-08-12T23:41:03.479Z,98096.54
2023-08-12T23:43:31.309Z,98094.56
2023-08-12T23:46:01.316Z,98093.80
2023-08-12T23:48:29.305Z,98094.13
2023-08-12T23:50:57.551Z,98092.30
2023-08-12T23:53:25.524Z,98092.87
2023-08-12T23:55:53.680Z,98097.89
2023-08-12T23:58:21.969Z,98099.49
